sensor_id;sensor_type;location;lat;lon;timestamp;temperature;humidity
80296;DHT22;74188;42.148;24.762;2024-03-08T06:34:24;8.80;74.90
80296;DHT22;74188;42.148;24.762;2024-03-08T06:36:50;8.90;74.40
80296;DHT22;74188;42.148;24.762;2024-03-08T06:39:17;8.80;74.40
80296;DHT22;74188;42.148;24.762;2024-03-08T06:41:42;8.90;74.40
80296;DHT22;74188;42.148;24.762;2024-03-08T06:44:10;8.90;74.20
80296;DHT22;74188;42.148;24.762;2024-03-08T06:46:35;8.90;74.70
80296;DHT22;74188;42.148;24.762;2024-03-08T06:49:01;8.90;74.60
80296;DHT22;74188;42.148;24.762;2024-03-08T06:51:28;9.00;74.20
80296;DHT22;74188;42.148;24.762;2024-03-08T06:53:54;9.10;73.80
80296;DHT22;74188;42.148;24.762;2024-03-08T06:56:19;9.10;73.70
80296;DHT22;74188;42.148;24.762;2024-03-08T06:58:45;9.10;73.70
80296;DHT22;74188;42.148;24.762;2024-03-08T07:01:11;9.20;73.80
80296;DHT22;74188;42.148;24.762;2024-03-08T07:03:41;9.30;73.40
80296;DHT22;74188;42.148;24.762;2024-03-08T07:06:10;9.30;73.00
80296;DHT22;74188;42.148;24.762;2024-03-08T07:08:36;9.30;73.10
80296;DHT22;74188;42.148;24.762;2024-03-08T07:11:01;9.30;73.10
80296;DHT22;74188;42.148;24.762;2024-03-08T07:13:27;9.30;73.00
80296;DHT22;74188;42.148;24.762;2024-03-08T07:15:55;9.30;73.00
80296;DHT22;74188;42.148;24.762;2024-03-08T07:18:20;9.30;72.80
80296;DHT22;74188;42.148;24.762;2024-03-08T07:20:47;9.30;72.60
80296;DHT22;74188;42.148;24.762;2024-03-08T07:23:14;9.30;72.70
80296;DHT22;74188;42.148;24.762;2024-03-08T07:26:00;9.20;72.80
80296;DHT22;74188;42.148;24.762;2024-03-08T07:28:26;9.30;72.30
80296;DHT22;74188;42.148;24.762;2024-03-08T07:30:53;9.20;72.00
80296;DHT22;74188;42.148;24.762;2024-03-08T07:33:27;9.20;71.90
80296;DHT22;74188;42.148;24.762;2024-03-08T07:35:52;9.10;71.60
80296;DHT22;74188;42.148;24.762;2024-03-08T07:38:18;9.20;71.30
80296;DHT22;74188;42.148;24.762;2024-03-08T07:40:46;9.20;71.40
80296;DHT22;74188;42.148;24.762;2024-03-08T07:43:13;9.30;71.90
80296;DHT22;74188;42.148;24.762;2024-03-08T07:45:39;9.40;71.40
80296;DHT22;74188;42.148;24.762;2024-03-08T07:48:05;9.60;70.90
80296;DHT22;74188;42.148;24.762;2024-03-08T07:50:42;9.80;70.10
80296;DHT22;74188;42.148;24.762;2024-03-08T07:53:07;9.80;69.10
80296;DHT22;74188;42.148;24.762;2024-03-08T07:55:34;9.90;69.20
80296;DHT22;74188;42.148;24.762;2024-03-08T07:58:01;9.80;68.40
80296;DHT22;74188;42.148;24.762;2024-03-08T08:00:26;9.80;68.80
80296;DHT22;74188;42.148;24.762;2024-03-08T08:02:53;9.80;68.80
80296;DHT22;74188;42.148;24.762;2024-03-08T08:05:19;9.90;68.60
80296;DHT22;74188;42.148;24.762;2024-03-08T08:07:45;9.90;68.30
80296;DHT22;74188;42.148;24.762;2024-03-08T08:10:12;9.90;68.10
80296;DHT22;74188;42.148;24.762;2024-03-08T08:12:49;10.00;68.20
80296;DHT22;74188;42.148;24.762;2024-03-08T08:15:15;10.10;67.60
80296;DHT22;74188;42.148;24.762;2024-03-08T08:17:42;10.10;67.00
80296;DHT22;74188;42.148;24.762;2024-03-08T08:20:09;10.10;67.20
80296;DHT22;74188;42.148;24.762;2024-03-08T08:22:35;10.20;66.90
80296;DHT22;74188;42.148;24.762;2024-03-08T08:25:01;10.30;66.50
80296;DHT22;74188;42.148;24.762;2024-03-08T08:27:27;10.40;66.00
80296;DHT22;74188;42.148;24.762;2024-03-08T08:29:53;10.30;65.20
80296;DHT22;74188;42.148;24.762;2024-03-08T08:32:18;10.40;65.70
80296;DHT22;74188;42.148;24.762;2024-03-08T08:34:45;10.30;65.60
80296;DHT22;74188;42.148;24.762;2024-03-08T08:37:11;10.10;66.00
80296;DHT22;74188;42.148;24.762;2024-03-08T08:39:37;10.10;66.20
80296;DHT22;74188;42.148;24.762;2024-03-08T08:42:03;10.20;66.40
80296;DHT22;74188;42.148;24.762;2024-03-08T08:44:29;10.20;67.00
80296;DHT22;74188;42.148;24.762;2024-03-08T08:46:57;10.30;66.40
80296;DHT22;74188;42.148;24.762;2024-03-08T08:49:23;10.40;65.50
80296;DHT22;74188;42.148;24.762;2024-03-08T08:51:51;10.40;65.60
80296;DHT22;74188;42.148;24.762;2024-03-08T08:54:17;10.40;65.40
80296;DHT22;74188;42.148;24.762;2024-03-08T08:56:43;10.30;65.60
80296;DHT22;74188;42.148;24.762;2024-03-08T08:59:10;10.60;65.20
80296;DHT22;74188;42.148;24.762;2024-03-08T09:01:39;10.70;64.70
80296;DHT22;74188;42.148;24.762;2024-03-08T09:04:05;10.80;64.40
80296;DHT22;74188;42.148;24.762;2024-03-08T09:06:31;11.00;63.30
80296;DHT22;74188;42.148;24.762;2024-03-08T09:08:57;11.10;63.30
80296;DHT22;74188;42.148;24.762;2024-03-08T09:11:23;11.00;62.90
80296;DHT22;74188;42.148;24.762;2024-03-08T09:13:50;11.10;62.20
80296;DHT22;74188;42.148;24.762;2024-03-08T09:16:16;11.30;62.30
80296;DHT22;74188;42.148;24.762;2024-03-08T09:18:42;11.60;60.80
80296;DHT22;74188;42.148;24.762;2024-03-08T09:21:07;11.80;59.80
80296;DHT22;74188;42.148;24.762;2024-03-08T09:23:36;11.80;59.70
80296;DHT22;74188;42.148;24.762;2024-03-08T09:26:01;11.70;60.00
80296;DHT22;74188;42.148;24.762;2024-03-08T09:28:29;11.70;60.00
80296;DHT22;74188;42.148;24.762;2024-03-08T09:30:55;11.70;60.30
80296;DHT22;74188;42.148;24.762;2024-03-08T09:33:21;11.60;61.10
80296;DHT22;74188;42.148;24.762;2024-03-08T09:35:47;11.60;60.70
80296;DHT22;74188;42.148;24.762;2024-03-08T09:38:14;11.70;59.50
80296;DHT22;74188;42.148;24.762;2024-03-08T09:40:43;11.80;59.40
80296;DHT22;74188;42.148;24.762;2024-03-08T09:43:12;12.00;59.20
80296;DHT22;74188;42.148;24.762;2024-03-08T09:45:38;12.10;58.40
80296;DHT22;74188;42.148;24.762;2024-03-08T09:48:10;12.10;58.20
80296;DHT22;74188;42.148;24.762;2024-03-08T09:50:42;12.20;58.20
80296;DHT22;74188;42.148;24.762;2024-03-08T09:53:09;12.10;58.60
80296;DHT22;74188;42.148;24.762;2024-03-08T09:55:37;11.90;58.30
80296;DHT22;74188;42.148;24.762;2024-03-08T09:58:06;11.80;59.40
80296;DHT22;74188;42.148;24.762;2024-03-08T10:00:52;11.90;59.20
80296;DHT22;74188;42.148;24.762;2024-03-08T10:03:19;11.50;59.80
80296;DHT22;74188;42.148;24.762;2024-03-08T10:05:45;11.50;60.40
80296;DHT22;74188;42.148;24.762;2024-03-08T10:08:10;11.70;60.40
80296;DHT22;74188;42.148;24.762;2024-03-08T10:10:39;11.80;60.20
80296;DHT22;74188;42.148;24.762;2024-03-08T10:13:09;12.00;59.60
80296;DHT22;74188;42.148;24.762;2024-03-08T10:15:39;12.00;59.30
80296;DHT22;74188;42.148;24.762;2024-03-08T10:18:06;12.00;58.80
80296;DHT22;74188;42.148;24.762;2024-03-08T10:20:32;12.00;58.80
80296;DHT22;74188;42.148;24.762;2024-03-08T10:23:04;12.20;58.20
80296;DHT22;74188;42.148;24.762;2024-03-08T10:25:34;12.20;57.80
80296;DHT22;74188;42.148;24.762;2024-03-08T10:28:02;12.10;58.10
80296;DHT22;74188;42.148;24.762;2024-03-08T10:30:29;12.10;58.70
80296;DHT22;74188;42.148;24.762;2024-03-08T10:32:55;12.10;58.80
80296;DHT22;74188;42.148;24.762;2024-03-08T10:35:21;12.10;58.30
80296;DHT22;74188;42.148;24.762;2024-03-08T10:37:49;12.20;58.20
80296;DHT22;74188;42.148;24.762;2024-03-08T10:40:19;12.20;58.00
80296;DHT22;74188;42.148;24.762;2024-03-08T10:43:05;12.20;58.20
80296;DHT22;74188;42.148;24.762;2024-03-08T10:50:47;12.30;58.40
80296;DHT22;74188;42.148;24.762;2024-03-08T10:53:20;12.20;58.40
80296;DHT22;74188;42.148;24.762;2024-03-08T10:55:49;12.30;58.20
80296;DHT22;74188;42.148;24.762;2024-03-08T10:58:20;12.20;58.70
80296;DHT22;74188;42.148;24.762;2024-03-08T11:00:47;12.20;58.50
80296;DHT22;74188;42.148;24.762;2024-03-08T11:06:29;12.10;58.30
80296;DHT22;74188;42.148;24.762;2024-03-08T11:08:55;12.20;58.70
80296;DHT22;74188;42.148;24.762;2024-03-08T11:11:25;12.40;58.90
80296;DHT22;74188;42.148;24.762;2024-03-08T11:13:53;12.40;57.40
80296;DHT22;74188;42.148;24.762;2024-03-08T11:18:55;12.90;57.70
80296;DHT22;74188;42.148;24.762;2024-03-08T11:21:25;13.70;55.10
80296;DHT22;74188;42.148;24.762;2024-03-08T11:24:10;14.20;53.50
80296;DHT22;74188;42.148;24.762;2024-03-08T11:26:37;14.60;51.20
80296;DHT22;74188;42.148;24.762;2024-03-08T11:32:12;15.50;48.90
80296;DHT22;74188;42.148;24.762;2024-03-08T11:34:40;16.60;46.00
80296;DHT22;74188;42.148;24.762;2024-03-08T11:37:14;17.30;43.30
80296;DHT22;74188;42.148;24.762;2024-03-08T11:39:46;17.80;42.10
80296;DHT22;74188;42.148;24.762;2024-03-08T11:42:14;18.90;39.60
80296;DHT22;74188;42.148;24.762;2024-03-08T11:44:41;19.40;37.60
80296;DHT22;74188;42.148;24.762;2024-03-08T11:47:13;19.60;37.20
80296;DHT22;74188;42.148;24.762;2024-03-08T11:49:39;19.60;37.30
80296;DHT22;74188;42.148;24.762;2024-03-08T11:52:11;19.70;37.40
80296;DHT22;74188;42.148;24.762;2024-03-08T11:54:40;21.50;35.00
80296;DHT22;74188;42.148;24.762;2024-03-08T11:57:06;23.90;29.80
80296;DHT22;74188;42.148;24.762;2024-03-08T11:59:32;25.00;26.80
80296;DHT22;74188;42.148;24.762;2024-03-08T12:02:03;24.50;26.90
80296;DHT22;74188;42.148;24.762;2024-03-08T12:04:30;23.40;28.50
80296;DHT22;74188;42.148;24.762;2024-03-08T12:06:58;22.30;29.80
80296;DHT22;74188;42.148;24.762;2024-03-08T12:09:26;21.40;31.20
80296;DHT22;74188;42.148;24.762;2024-03-08T12:11:52;20.40;34.20
80296;DHT22;74188;42.148;24.762;2024-03-08T12:14:17;19.90;35.50
80296;DHT22;74188;42.148;24.762;2024-03-08T12:16:44;19.20;37.00
80296;DHT22;74188;42.148;24.762;2024-03-08T12:19:10;18.70;37.90
80296;DHT22;74188;42.148;24.762;2024-03-08T12:21:36;18.30;39.10
80296;DHT22;74188;42.148;24.762;2024-03-08T12:24:09;18.00;40.20
80296;DHT22;74188;42.148;24.762;2024-03-08T12:26:38;17.60;41.30
80296;DHT22;74188;42.148;24.762;2024-03-08T12:29:24;17.30;41.80
80296;DHT22;74188;42.148;24.762;2024-03-08T12:31:54;16.90;42.70
80296;DHT22;74188;42.148;24.762;2024-03-08T12:34:20;16.70;43.30
80296;DHT22;74188;42.148;24.762;2024-03-08T12:36:50;16.50;43.80
80296;DHT22;74188;42.148;24.762;2024-03-08T12:39:19;16.50;43.80
80296;DHT22;74188;42.148;24.762;2024-03-08T12:41:54;16.50;44.00
80296;DHT22;74188;42.148;24.762;2024-03-08T12:44:20;16.40;44.10
80296;DHT22;74188;42.148;24.762;2024-03-08T12:46:47;16.90;43.90
80296;DHT22;74188;42.148;24.762;2024-03-08T12:49:14;18.90;40.00
80296;DHT22;74188;42.148;24.762;2024-03-08T12:51:44;20.90;34.40
80296;DHT22;74188;42.148;24.762;2024-03-08T12:54:10;21.80;31.30
80296;DHT22;74188;42.148;24.762;2024-03-08T12:56:36;21.50;31.60
80296;DHT22;74188;42.148;24.762;2024-03-08T12:59:04;21.00;32.10
80296;DHT22;74188;42.148;24.762;2024-03-08T13:01:30;20.30;33.50
80296;DHT22;74188;42.148;24.762;2024-03-08T13:03:58;19.90;34.40
80296;DHT22;74188;42.148;24.762;2024-03-08T13:06:24;19.10;36.20
80296;DHT22;74188;42.148;24.762;2024-03-08T13:08:53;18.50;37.80
80296;DHT22;74188;42.148;24.762;2024-03-08T13:11:19;17.80;39.20
80296;DHT22;74188;42.148;24.762;2024-03-08T13:13:45;17.50;40.30
80296;DHT22;74188;42.148;24.762;2024-03-08T13:16:11;17.00;40.60
80296;DHT22;74188;42.148;24.762;2024-03-08T13:18:41;16.50;42.00
80296;DHT22;74188;42.148;24.762;2024-03-08T13:21:10;16.30;43.00
80296;DHT22;74188;42.148;24.762;2024-03-08T13:23:37;16.50;42.80
80296;DHT22;74188;42.148;24.762;2024-03-08T13:26:09;16.50;42.20
80296;DHT22;74188;42.148;24.762;2024-03-08T13:28:49;16.70;42.30
80296;DHT22;74188;42.148;24.762;2024-03-08T13:31:20;16.80;42.20
80296;DHT22;74188;42.148;24.762;2024-03-08T13:33:45;17.30;41.50
80296;DHT22;74188;42.148;24.762;2024-03-08T13:36:12;17.50;40.90
80296;DHT22;74188;42.148;24.762;2024-03-08T13:38:46;18.40;39.40
80296;DHT22;74188;42.148;24.762;2024-03-08T13:41:13;20.20;35.50
80296;DHT22;74188;42.148;24.762;2024-03-08T13:43:46;21.80;31.00
80296;DHT22;74188;42.148;24.762;2024-03-08T13:46:15;23.00;29.00
80296;DHT22;74188;42.148;24.762;2024-03-08T13:48:41;24.00;27.60
80296;DHT22;74188;42.148;24.762;2024-03-08T13:51:07;24.80;26.30
80296;DHT22;74188;42.148;24.762;2024-03-08T13:53:35;24.50;25.60
80296;DHT22;74188;42.148;24.762;2024-03-08T13:56:04;23.60;27.30
80296;DHT22;74188;42.148;24.762;2024-03-08T13:58:31;22.80;28.60
80296;DHT22;74188;42.148;24.762;2024-03-08T14:00:56;22.00;29.80
80296;DHT22;74188;42.148;24.762;2024-03-08T14:03:22;21.30;30.80
80296;DHT22;74188;42.148;24.762;2024-03-08T14:05:49;20.30;32.70
80296;DHT22;74188;42.148;24.762;2024-03-08T14:08:15;19.50;34.20
80296;DHT22;74188;42.148;24.762;2024-03-08T14:10:43;19.00;35.60
80296;DHT22;74188;42.148;24.762;2024-03-08T14:13:08;18.30;37.40
80296;DHT22;74188;42.148;24.762;2024-03-08T14:15:34;17.50;39.40
80296;DHT22;74188;42.148;24.762;2024-03-08T14:18:01;17.00;40.60
80296;DHT22;74188;42.148;24.762;2024-03-08T14:20:27;16.30;41.50
80296;DHT22;74188;42.148;24.762;2024-03-08T14:22:56;16.00;42.20
80296;DHT22;74188;42.148;24.762;2024-03-08T14:25:22;15.60;43.10
80296;DHT22;74188;42.148;24.762;2024-03-08T14:27:50;15.60;43.40
80296;DHT22;74188;42.148;24.762;2024-03-08T14:30:19;15.40;44.00
80296;DHT22;74188;42.148;24.762;2024-03-08T14:33:04;15.20;44.50
80296;DHT22;74188;42.148;24.762;2024-03-08T14:35:37;15.10;45.40
80296;DHT22;74188;42.148;24.762;2024-03-08T14:38:03;15.00;45.10
80296;DHT22;74188;42.148;24.762;2024-03-08T14:40:29;15.10;45.20
80296;DHT22;74188;42.148;24.762;2024-03-08T14:42:56;15.20;45.00
80296;DHT22;74188;42.148;24.762;2024-03-08T14:45:22;15.20;44.50
80296;DHT22;74188;42.148;24.762;2024-03-08T14:47:49;15.40;44.70
80296;DHT22;74188;42.148;24.762;2024-03-08T14:50:19;15.50;44.90
80296;DHT22;74188;42.148;24.762;2024-03-08T14:52:45;15.40;45.60
80296;DHT22;74188;42.148;24.762;2024-03-08T14:55:17;15.30;46.10
80296;DHT22;74188;42.148;24.762;2024-03-08T14:57:45;15.20;46.60
80296;DHT22;74188;42.148;24.762;2024-03-08T15:00:12;15.00;47.30
80296;DHT22;74188;42.148;24.762;2024-03-08T15:02:45;14.70;48.10
80296;DHT22;74188;42.148;24.762;2024-03-08T15:05:13;14.40;48.80
80296;DHT22;74188;42.148;24.762;2024-03-08T15:07:39;14.20;49.30
80296;DHT22;74188;42.148;24.762;2024-03-08T15:10:07;14.10;49.80
80296;DHT22;74188;42.148;24.762;2024-03-08T15:12:37;13.90;50.80
80296;DHT22;74188;42.148;24.762;2024-03-08T15:15:05;13.70;51.10
80296;DHT22;74188;42.148;24.762;2024-03-08T15:17:33;13.60;51.20
80296;DHT22;74188;42.148;24.762;2024-03-08T15:20:02;13.40;51.30
80296;DHT22;74188;42.148;24.762;2024-03-08T15:22:29;13.40;51.30
80296;DHT22;74188;42.148;24.762;2024-03-08T15:24:54;13.40;51.20
80296;DHT22;74188;42.148;24.762;2024-03-08T15:27:23;13.40;51.40
80296;DHT22;74188;42.148;24.762;2024-03-08T15:29:49;13.50;51.70
80296;DHT22;74188;42.148;24.762;2024-03-08T15:32:17;13.60;53.20
80296;DHT22;74188;42.148;24.762;2024-03-08T15:34:46;13.40;54.20
80296;DHT22;74188;42.148;24.762;2024-03-08T15:37:11;13.30;54.70
80296;DHT22;74188;42.148;24.762;2024-03-08T15:39:43;13.20;55.10
80296;DHT22;74188;42.148;24.762;2024-03-08T15:42:09;12.90;55.80
80296;DHT22;74188;42.148;24.762;2024-03-08T15:44:39;12.70;56.50
80296;DHT22;74188;42.148;24.762;2024-03-08T15:47:07;12.30;57.60
80296;DHT22;74188;42.148;24.762;2024-03-08T15:49:34;12.30;58.00
80296;DHT22;74188;42.148;24.762;2024-03-08T15:51:59;12.10;58.40
80296;DHT22;74188;42.148;24.762;2024-03-08T15:54:27;11.90;58.80
80296;DHT22;74188;42.148;24.762;2024-03-08T15:56:53;11.80;59.00
80296;DHT22;74188;42.148;24.762;2024-03-08T15:59:18;11.60;59.70
80296;DHT22;74188;42.148;24.762;2024-03-08T16:01:44;11.60;60.10
80296;DHT22;74188;42.148;24.762;2024-03-08T16:04:16;11.50;60.50
80296;DHT22;74188;42.148;24.762;2024-03-08T16:06:42;11.50;60.40
80296;DHT22;74188;42.148;24.762;2024-03-08T16:09:09;11.50;60.60
80296;DHT22;74188;42.148;24.762;2024-03-08T16:11:41;11.40;60.70
80296;DHT22;74188;42.148;24.762;2024-03-08T16:14:06;11.30;60.80
80296;DHT22;74188;42.148;24.762;2024-03-08T16:16:37;11.30;61.30
80296;DHT22;74188;42.148;24.762;2024-03-08T16:19:03;11.20;61.90
80296;DHT22;74188;42.148;24.762;2024-03-08T16:21:33;11.30;61.70
80296;DHT22;74188;42.148;24.762;2024-03-08T16:23:59;11.40;61.50
80296;DHT22;74188;42.148;24.762;2024-03-08T16:26:25;11.40;61.30
80296;DHT22;74188;42.148;24.762;2024-03-08T16:28:53;11.50;61.10
80296;DHT22;74188;42.148;24.762;2024-03-08T16:31:21;11.40;61.30
80296;DHT22;74188;42.148;24.762;2024-03-08T16:33:46;11.30;61.70
80296;DHT22;74188;42.148;24.762;2024-03-08T16:36:12;11.20;62.20
80296;DHT22;74188;42.148;24.762;2024-03-08T16:38:39;11.20;62.40
80296;DHT22;74188;42.148;24.762;2024-03-08T16:41:06;11.00;62.60
80296;DHT22;74188;42.148;24.762;2024-03-08T16:43:32;11.00;62.80
80296;DHT22;74188;42.148;24.762;2024-03-08T16:45:58;11.10;62.90
80296;DHT22;74188;42.148;24.762;2024-03-08T16:48:26;11.10;62.60
80296;DHT22;74188;42.148;24.762;2024-03-08T16:50:52;10.90;62.50
80296;DHT22;74188;42.148;24.762;2024-03-08T16:53:19;10.90;62.50
80296;DHT22;74188;42.148;24.762;2024-03-08T16:55:45;11.00;62.00
80296;DHT22;74188;42.148;24.762;2024-03-08T16:58:12;11.10;61.70
80296;DHT22;74188;42.148;24.762;2024-03-08T17:00:41;11.10;61.60
80296;DHT22;74188;42.148;24.762;2024-03-08T17:03:07;11.10;61.90
80296;DHT22;74188;42.148;24.762;2024-03-08T17:05:33;11.00;61.90
80296;DHT22;74188;42.148;24.762;2024-03-08T17:08:01;11.00;61.60
80296;DHT22;74188;42.148;24.762;2024-03-08T17:10:31;11.00;61.70
80296;DHT22;74188;42.148;24.762;2024-03-08T17:13:01;10.90;61.90
80296;DHT22;74188;42.148;24.762;2024-03-08T17:15:31;10.90;62.20
80296;DHT22;74188;42.148;24.762;2024-03-08T17:18:01;10.90;62.30
80296;DHT22;74188;42.148;24.762;2024-03-08T17:20:34;10.80;62.50
80296;DHT22;74188;42.148;24.762;2024-03-08T17:23:05;10.80;62.70
80296;DHT22;74188;42.148;24.762;2024-03-08T17:25:34;10.80;62.90
80296;DHT22;74188;42.148;24.762;2024-03-08T17:28:01;10.70;63.10
80296;DHT22;74188;42.148;24.762;2024-03-08T17:30:31;10.80;62.90
80296;DHT22;74188;42.148;24.762;2024-03-08T17:33:02;10.80;63.00
80296;DHT22;74188;42.148;24.762;2024-03-08T17:35:35;10.80;63.10
80296;DHT22;74188;42.148;24.762;2024-03-08T17:38:04;10.80;62.90
80296;DHT22;74188;42.148;24.762;2024-03-08T17:40:37;10.80;62.90
80296;DHT22;74188;42.148;24.762;2024-03-08T17:43:04;10.90;62.70
80296;DHT22;74188;42.148;24.762;2024-03-08T17:45:35;10.90;62.50
80296;DHT22;74188;42.148;24.762;2024-03-08T17:48:02;10.80;62.80
80296;DHT22;74188;42.148;24.762;2024-03-08T17:50:34;10.90;62.90
80296;DHT22;74188;42.148;24.762;2024-03-08T17:53:01;10.80;62.60
80296;DHT22;74188;42.148;24.762;2024-03-08T17:55:29;10.70;62.70
80296;DHT22;74188;42.148;24.762;2024-03-08T17:57:55;10.70;63.00
80296;DHT22;74188;42.148;24.762;2024-03-08T18:00:23;10.70;63.40
80296;DHT22;74188;42.148;24.762;2024-03-08T18:02:58;10.60;63.30
80296;DHT22;74188;42.148;24.762;2024-03-08T18:05:25;10.50;63.80
80296;DHT22;74188;42.148;24.762;2024-03-08T18:07:58;10.40;64.00
80296;DHT22;74188;42.148;24.762;2024-03-08T18:10:25;10.40;63.90
80296;DHT22;74188;42.148;24.762;2024-03-08T18:12:53;10.40;65.10
80296;DHT22;74188;42.148;24.762;2024-03-08T18:15:24;10.40;64.00
80296;DHT22;74188;42.148;24.762;2024-03-08T18:17:55;10.40;64.00
80296;DHT22;74188;42.148;24.762;2024-03-08T18:20:27;10.40;63.90
80296;DHT22;74188;42.148;24.762;2024-03-08T18:23:04;10.30;64.00
80296;DHT22;74188;42.148;24.762;2024-03-08T18:25:33;10.20;64.70
80296;DHT22;74188;42.148;24.762;2024-03-08T18:28:01;10.10;65.10
80296;DHT22;74188;42.148;24.762;2024-03-08T18:30:27;10.10;65.30
80296;DHT22;74188;42.148;24.762;2024-03-08T18:32:53;10.00;65.80
80296;DHT22;74188;42.148;24.762;2024-03-08T18:35:20;10.00;66.00
80296;DHT22;74188;42.148;24.762;2024-03-08T18:37:47;9.90;67.30
80296;DHT22;74188;42.148;24.762;2024-03-08T18:40:15;9.80;66.40
80296;DHT22;74188;42.148;24.762;2024-03-08T18:42:42;9.70;66.40
80296;DHT22;74188;42.148;24.762;2024-03-08T18:45:12;9.70;66.70
80296;DHT22;74188;42.148;24.762;2024-03-08T18:47:43;9.70;66.90
80296;DHT22;74188;42.148;24.762;2024-03-08T18:50:09;9.70;67.30
80296;DHT22;74188;42.148;24.762;2024-03-08T18:52:38;9.70;67.10
80296;DHT22;74188;42.148;24.762;2024-03-08T18:55:04;9.70;67.30
80296;DHT22;74188;42.148;24.762;2024-03-08T18:57:41;9.70;67.30
80296;DHT22;74188;42.148;24.762;2024-03-08T19:00:11;9.70;67.30
80296;DHT22;74188;42.148;24.762;2024-03-08T19:02:41;9.60;67.40
80296;DHT22;74188;42.148;24.762;2024-03-08T19:05:07;9.60;67.50
80296;DHT22;74188;42.148;24.762;2024-03-08T19:07:41;9.60;67.70
80296;DHT22;74188;42.148;24.762;2024-03-08T19:10:08;9.50;67.90
80296;DHT22;74188;42.148;24.762;2024-03-08T19:12:33;9.50;68.20
80296;DHT22;74188;42.148;24.762;2024-03-08T19:14:59;9.50;68.20
80296;DHT22;74188;42.148;24.762;2024-03-08T19:17:25;9.40;68.60
80296;DHT22;74188;42.148;24.762;2024-03-08T19:19:50;9.40;68.60
80296;DHT22;74188;42.148;24.762;2024-03-08T19:22:16;9.40;68.60
80296;DHT22;74188;42.148;24.762;2024-03-08T19:24:43;9.40;68.80
80296;DHT22;74188;42.148;24.762;2024-03-08T19:27:08;9.40;69.00
80296;DHT22;74188;42.148;24.762;2024-03-08T19:29:37;9.30;68.90
80296;DHT22;74188;42.148;24.762;2024-03-08T19:32:03;9.20;69.10
80296;DHT22;74188;42.148;24.762;2024-03-08T19:34:28;9.20;69.00
80296;DHT22;74188;42.148;24.762;2024-03-08T19:36:54;9.30;69.00
80296;DHT22;74188;42.148;24.762;2024-03-08T19:39:19;9.30;68.70
80296;DHT22;74188;42.148;24.762;2024-03-08T19:41:48;9.30;68.40
80296;DHT22;74188;42.148;24.762;2024-03-08T19:44:14;9.30;68.00
80296;DHT22;74188;42.148;24.762;2024-03-08T19:46:40;9.30;67.70
80296;DHT22;74188;42.148;24.762;2024-03-08T19:49:06;9.40;67.90
80296;DHT22;74188;42.148;24.762;2024-03-08T19:51:33;9.30;67.70
80296;DHT22;74188;42.148;24.762;2024-03-08T19:54:00;9.30;67.60
80296;DHT22;74188;42.148;24.762;2024-03-08T19:56:26;9.30;67.70
80296;DHT22;74188;42.148;24.762;2024-03-08T19:58:51;9.20;67.90
80296;DHT22;74188;42.148;24.762;2024-03-08T20:01:24;9.10;68.00
80296;DHT22;74188;42.148;24.762;2024-03-08T20:03:49;9.10;68.30
80296;DHT22;74188;42.148;24.762;2024-03-08T20:06:18;9.10;68.50
80296;DHT22;74188;42.148;24.762;2024-03-08T20:08:44;9.10;68.40
80296;DHT22;74188;42.148;24.762;2024-03-08T20:11:10;9.10;68.50
80296;DHT22;74188;42.148;24.762;2024-03-08T20:13:36;9.20;68.50
80296;DHT22;74188;42.148;24.762;2024-03-08T20:16:01;9.20;68.40
80296;DHT22;74188;42.148;24.762;2024-03-08T20:18:27;9.10;68.50
80296;DHT22;74188;42.148;24.762;2024-03-08T20:20:53;9.10;69.60
80296;DHT22;74188;42.148;24.762;2024-03-08T20:23:22;9.10;68.80
80296;DHT22;74188;42.148;24.762;2024-03-08T20:25:48;9.00;69.10
80296;DHT22;74188;42.148;24.762;2024-03-08T20:28:17;9.00;69.30
80296;DHT22;74188;42.148;24.762;2024-03-08T20:30:43;9.00;69.20
80296;DHT22;74188;42.148;24.762;2024-03-08T20:33:09;9.00;69.40
80296;DHT22;74188;42.148;24.762;2024-03-08T20:35:34;8.90;69.60
80296;DHT22;74188;42.148;24.762;2024-03-08T20:38:01;8.90;69.60
80296;DHT22;74188;42.148;24.762;2024-03-08T20:40:27;8.90;70.90
80296;DHT22;74188;42.148;24.762;2024-03-08T20:43:07;8.90;69.80
80296;DHT22;74188;42.148;24.762;2024-03-08T20:45:35;8.90;70.00
80296;DHT22;74188;42.148;24.762;2024-03-08T20:48:02;8.90;70.20
80296;DHT22;74188;42.148;24.762;2024-03-08T20:50:28;8.90;70.30
80296;DHT22;74188;42.148;24.762;2024-03-08T20:52:54;8.80;70.30
80296;DHT22;74188;42.148;24.762;2024-03-08T20:55:20;8.80;70.50
80296;DHT22;74188;42.148;24.762;2024-03-08T20:57:49;8.80;70.40
80296;DHT22;74188;42.148;24.762;2024-03-08T21:00:15;8.80;70.40
80296;DHT22;74188;42.148;24.762;2024-03-08T21:02:45;8.80;70.80
80296;DHT22;74188;42.148;24.762;2024-03-08T21:05:11;8.90;70.60
80296;DHT22;74188;42.148;24.762;2024-03-08T21:07:36;8.90;70.90
80296;DHT22;74188;42.148;24.762;2024-03-08T21:10:02;8.80;71.20
80296;DHT22;74188;42.148;24.762;2024-03-08T21:12:28;8.80;71.50
80296;DHT22;74188;42.148;24.762;2024-03-08T21:14:54;8.70;71.40
80296;DHT22;74188;42.148;24.762;2024-03-08T21:17:19;8.60;71.50
80296;DHT22;74188;42.148;24.762;2024-03-08T21:19:46;8.60;71.70
80296;DHT22;74188;42.148;24.762;2024-03-08T21:22:13;8.60;71.80
80296;DHT22;74188;42.148;24.762;2024-03-08T21:24:38;8.60;71.80
80296;DHT22;74188;42.148;24.762;2024-03-08T21:27:04;8.50;71.60
80296;DHT22;74188;42.148;24.762;2024-03-08T21:29:30;8.50;71.90
80296;DHT22;74188;42.148;24.762;2024-03-08T21:32:00;8.50;71.90
80296;DHT22;74188;42.148;24.762;2024-03-08T21:34:26;8.50;71.70
80296;DHT22;74188;42.148;24.762;2024-03-08T21:36:52;8.50;71.80
80296;DHT22;74188;42.148;24.762;2024-03-08T21:39:17;8.50;71.50
80296;DHT22;74188;42.148;24.762;2024-03-08T21:41:43;8.50;71.40
80296;DHT22;74188;42.148;24.762;2024-03-08T21:44:10;8.60;71.40
80296;DHT22;74188;42.148;24.762;2024-03-08T21:46:36;8.60;71.00
80296;DHT22;74188;42.148;24.762;2024-03-08T21:49:01;8.60;70.80
80296;DHT22;74188;42.148;24.762;2024-03-08T21:51:29;8.50;70.60
80296;DHT22;74188;42.148;24.762;2024-03-08T21:53:54;8.50;70.60
80296;DHT22;74188;42.148;24.762;2024-03-08T21:56:20;8.50;70.40
80296;DHT22;74188;42.148;24.762;2024-03-08T21:58:45;8.40;70.50
80296;DHT22;74188;42.148;24.762;2024-03-08T22:01:11;8.40;70.30
80296;DHT22;74188;42.148;24.762;2024-03-08T22:03:36;8.40;70.30
80296;DHT22;74188;42.148;24.762;2024-03-08T22:06:02;8.30;69.80
80296;DHT22;74188;42.148;24.762;2024-03-08T22:08:35;8.30;70.00
80296;DHT22;74188;42.148;24.762;2024-03-08T22:11:03;8.40;69.80